sensor_id;sensor_type;location;lat;lon;timestamp;temperature;humidity
26691;DHT22;14307;51.718;8.938;2024-02-21T00:00:56;7.80;99.90
26691;DHT22;14307;51.718;8.938;2024-02-21T00:03:23;7.80;99.90
26691;DHT22;14307;51.718;8.938;2024-02-21T00:05:50;7.80;99.90
26691;DHT22;14307;51.718;8.938;2024-02-21T00:08:19;7.80;99.90
26691;DHT22;14307;51.718;8.938;2024-02-21T00:10:45;7.80;99.90
26691;DHT22;14307;51.718;8.938;2024-02-21T00:13:13;7.80;99.90
26691;DHT22;14307;51.718;8.938;2024-02-21T00:15:40;7.80;99.90
26691;DHT22;14307;51.718;8.938;2024-02-21T00:18:07;7.70;99.90
26691;DHT22;14307;51.718;8.938;2024-02-21T00:20:34;7.70;99.90
26691;DHT22;14307;51.718;8.938;2024-02-21T00:23:01;7.80;99.90
26691;DHT22;14307;51.718;8.938;2024-02-21T00:25:28;7.70;99.90
26691;DHT22;14307;51.718;8.938;2024-02-21T00:27:54;7.80;99.90
26691;DHT22;14307;51.718;8.938;2024-02-21T00:30:21;7.70;99.90
26691;DHT22;14307;51.718;8.938;2024-02-21T00:32:48;7.70;99.90
26691;DHT22;14307;51.718;8.938;2024-02-21T00:35:15;7.70;99.90
26691;DHT22;14307;51.718;8.938;2024-02-21T00:37:42;7.70;99.90
26691;DHT22;14307;51.718;8.938;2024-02-21T00:40:09;7.70;99.90
26691;DHT22;14307;51.718;8.938;2024-02-21T00:42:36;7.70;99.90
26691;DHT22;14307;51.718;8.938;2024-02-21T00:45:03;7.70;99.90
26691;DHT22;14307;51.718;8.938;2024-02-21T00:47:30;7.70;99.90
26691;DHT22;14307;51.718;8.938;2024-02-21T00:49:57;7.70;99.90
26691;DHT22;14307;51.718;8.938;2024-02-21T00:52:24;7.70;99.90
26691;DHT22;14307;51.718;8.938;2024-02-21T00:54:51;7.70;99.90
26691;DHT22;14307;51.718;8.938;2024-02-21T00:57:20;7.70;99.90
26691;DHT22;14307;51.718;8.938;2024-02-21T00:59:47;7.70;99.90
26691;DHT22;14307;51.718;8.938;2024-02-21T01:02:14;7.80;99.90
26691;DHT22;14307;51.718;8.938;2024-02-21T01:04:41;7.80;99.90
26691;DHT22;14307;51.718;8.938;2024-02-21T01:07:08;7.70;99.90
26691;DHT22;14307;51.718;8.938;2024-02-21T01:09:35;7.80;99.90
26691;DHT22;14307;51.718;8.938;2024-02-21T01:12:02;7.70;99.90
26691;DHT22;14307;51.718;8.938;2024-02-21T01:14:28;7.70;99.90
26691;DHT22;14307;51.718;8.938;2024-02-21T01:16:58;7.80;99.90
26691;DHT22;14307;51.718;8.938;2024-02-21T01:19:25;7.80;99.90
26691;DHT22;14307;51.718;8.938;2024-02-21T01:21:52;7.80;99.90
26691;DHT22;14307;51.718;8.938;2024-02-21T01:24:19;7.80;99.90
26691;DHT22;14307;51.718;8.938;2024-02-21T01:26:46;7.80;99.90
26691;DHT22;14307;51.718;8.938;2024-02-21T01:29:13;7.80;99.90
26691;DHT22;14307;51.718;8.938;2024-02-21T01:31:40;7.80;99.90
26691;DHT22;14307;51.718;8.938;2024-02-21T01:34:07;7.80;99.90
26691;DHT22;14307;51.718;8.938;2024-02-21T01:36:34;7.80;99.90
26691;DHT22;14307;51.718;8.938;2024-02-21T01:39:02;7.80;99.90
26691;DHT22;14307;51.718;8.938;2024-02-21T01:41:32;7.80;99.90
26691;DHT22;14307;51.718;8.938;2024-02-21T01:43:59;7.80;99.90
26691;DHT22;14307;51.718;8.938;2024-02-21T01:46:26;7.80;99.90
26691;DHT22;14307;51.718;8.938;2024-02-21T01:48:56;7.80;99.90
26691;DHT22;14307;51.718;8.938;2024-02-21T01:51:25;7.90;99.90
26691;DHT22;14307;51.718;8.938;2024-02-21T01:53:53;7.90;99.90
26691;DHT22;14307;51.718;8.938;2024-02-21T01:56:22;7.90;99.90
26691;DHT22;14307;51.718;8.938;2024-02-21T01:58:50;7.90;99.90
26691;DHT22;14307;51.718;8.938;2024-02-21T02:01:17;8.00;99.90
26691;DHT22;14307;51.718;8.938;2024-02-21T02:03:48;7.90;99.90
26691;DHT22;14307;51.718;8.938;2024-02-21T02:06:15;7.90;99.90
26691;DHT22;14307;51.718;8.938;2024-02-21T02:08:43;7.90;99.90
26691;DHT22;14307;51.718;8.938;2024-02-21T02:11:10;8.00;99.90
26691;DHT22;14307;51.718;8.938;2024-02-21T02:13:37;7.90;99.90
26691;DHT22;14307;51.718;8.938;2024-02-21T02:16:05;8.00;99.90
26691;DHT22;14307;51.718;8.938;2024-02-21T02:18:32;8.00;99.90
26691;DHT22;14307;51.718;8.938;2024-02-21T02:20:58;7.90;99.90
26691;DHT22;14307;51.718;8.938;2024-02-21T02:23:32;8.00;99.90
26691;DHT22;14307;51.718;8.938;2024-02-21T02:25:58;7.90;99.90
26691;DHT22;14307;51.718;8.938;2024-02-21T02:28:27;7.90;99.90
26691;DHT22;14307;51.718;8.938;2024-02-21T02:30:54;8.00;99.90
26691;DHT22;14307;51.718;8.938;2024-02-21T02:33:21;8.00;99.90
26691;DHT22;14307;51.718;8.938;2024-02-21T02:35:48;8.00;99.90
26691;DHT22;14307;51.718;8.938;2024-02-21T02:38:15;8.00;99.90
26691;DHT22;14307;51.718;8.938;2024-02-21T02:40:42;7.90;99.90
26691;DHT22;14307;51.718;8.938;2024-02-21T02:43:09;8.00;99.90
26691;DHT22;14307;51.718;8.938;2024-02-21T02:45:36;8.00;99.90
26691;DHT22;14307;51.718;8.938;2024-02-21T02:48:03;8.00;99.90
26691;DHT22;14307;51.718;8.938;2024-02-21T02:50:31;7.90;99.90
26691;DHT22;14307;51.718;8.938;2024-02-21T02:52:58;7.90;99.90
26691;DHT22;14307;51.718;8.938;2024-02-21T02:55:27;8.00;99.90
26691;DHT22;14307;51.718;8.938;2024-02-21T02:57:54;7.90;99.90
26691;DHT22;14307;51.718;8.938;2024-02-21T03:00:22;8.00;99.90
26691;DHT22;14307;51.718;8.938;2024-02-21T03:02:49;7.90;99.90
26691;DHT22;14307;51.718;8.938;2024-02-21T03:05:21;7.90;99.90
26691;DHT22;14307;51.718;8.938;2024-02-21T03:07:48;7.90;99.90
26691;DHT22;14307;51.718;8.938;2024-02-21T03:10:16;8.00;99.90
26691;DHT22;14307;51.718;8.938;2024-02-21T03:12:44;7.90;99.90
26691;DHT22;14307;51.718;8.938;2024-02-21T03:15:11;7.90;99.90
26691;DHT22;14307;51.718;8.938;2024-02-21T03:17:39;7.90;99.90
26691;DHT22;14307;51.718;8.938;2024-02-21T03:20:06;7.90;99.90
26691;DHT22;14307;51.718;8.938;2024-02-21T03:22:39;7.90;99.90
26691;DHT22;14307;51.718;8.938;2024-02-21T03:25:08;7.90;99.90
26691;DHT22;14307;51.718;8.938;2024-02-21T03:27:35;7.90;99.90
26691;DHT22;14307;51.718;8.938;2024-02-21T03:30:02;7.90;99.90
26691;DHT22;14307;51.718;8.938;2024-02-21T03:32:31;7.90;99.90
26691;DHT22;14307;51.718;8.938;2024-02-21T03:34:58;7.90;99.90
26691;DHT22;14307;51.718;8.938;2024-02-21T03:37:24;8.00;99.90
26691;DHT22;14307;51.718;8.938;2024-02-21T03:39:51;7.90;99.90
26691;DHT22;14307;51.718;8.938;2024-02-21T03:42:18;7.90;99.90
26691;DHT22;14307;51.718;8.938;2024-02-21T03:44:45;7.90;99.90
26691;DHT22;14307;51.718;8.938;2024-02-21T03:47:12;8.00;99.90
26691;DHT22;14307;51.718;8.938;2024-02-21T03:49:39;8.00;99.90
26691;DHT22;14307;51.718;8.938;2024-02-21T03:52:06;7.90;99.90
26691;DHT22;14307;51.718;8.938;2024-02-21T03:54:33;8.00;99.90
26691;DHT22;14307;51.718;8.938;2024-02-21T03:57:00;8.00;99.90
26691;DHT22;14307;51.718;8.938;2024-02-21T03:59:28;8.00;99.90
26691;DHT22;14307;51.718;8.938;2024-02-21T04:01:54;8.00;99.90
26691;DHT22;14307;51.718;8.938;2024-02-21T04:04:22;8.00;99.90
26691;DHT22;14307;51.718;8.938;2024-02-21T04:06:49;8.00;99.90
26691;DHT22;14307;51.718;8.938;2024-02-21T04:09:17;8.00;99.90
26691;DHT22;14307;51.718;8.938;2024-02-21T04:11:44;8.10;99.90
26691;DHT22;14307;51.718;8.938;2024-02-21T04:14:11;8.10;99.90
26691;DHT22;14307;51.718;8.938;2024-02-21T04:16:38;8.10;99.90
26691;DHT22;14307;51.718;8.938;2024-02-21T04:19:06;8.10;99.90
26691;DHT22;14307;51.718;8.938;2024-02-21T04:21:34;8.10;99.90
26691;DHT22;14307;51.718;8.938;2024-02-21T04:24:01;8.10;99.90
26691;DHT22;14307;51.718;8.938;2024-02-21T04:26:31;8.10;99.90
26691;DHT22;14307;51.718;8.938;2024-02-21T04:28:58;8.10;99.90
26691;DHT22;14307;51.718;8.938;2024-02-21T04:31:25;8.10;99.90
26691;DHT22;14307;51.718;8.938;2024-02-21T04:33:52;8.00;99.90
26691;DHT22;14307;51.718;8.938;2024-02-21T04:36:19;8.00;99.90
26691;DHT22;14307;51.718;8.938;2024-02-21T04:38:45;8.10;99.90
26691;DHT22;14307;51.718;8.938;2024-02-21T04:41:12;8.00;99.90
26691;DHT22;14307;51.718;8.938;2024-02-21T04:43:39;8.10;99.90
26691;DHT22;14307;51.718;8.938;2024-02-21T04:46:09;8.10;99.90
26691;DHT22;14307;51.718;8.938;2024-02-21T04:48:36;8.00;99.90
26691;DHT22;14307;51.718;8.938;2024-02-21T04:51:03;8.00;99.90
26691;DHT22;14307;51.718;8.938;2024-02-21T04:53:30;8.00;99.90
26691;DHT22;14307;51.718;8.938;2024-02-21T04:55:57;8.00;99.90
26691;DHT22;14307;51.718;8.938;2024-02-21T04:58:24;8.00;99.90
26691;DHT22;14307;51.718;8.938;2024-02-21T05:00:52;8.00;99.90
26691;DHT22;14307;51.718;8.938;2024-02-21T05:03:20;8.00;99.90
26691;DHT22;14307;51.718;8.938;2024-02-21T05:05:47;8.00;99.90
26691;DHT22;14307;51.718;8.938;2024-02-21T05:08:14;8.00;99.90
26691;DHT22;14307;51.718;8.938;2024-02-21T05:10:43;7.90;99.90
26691;DHT22;14307;51.718;8.938;2024-02-21T05:13:10;7.90;99.90
26691;DHT22;14307;51.718;8.938;2024-02-21T05:15:37;7.90;99.90
26691;DHT22;14307;51.718;8.938;2024-02-21T05:18:04;7.90;99.90
26691;DHT22;14307;51.718;8.938;2024-02-21T05:20:31;7.90;99.90
26691;DHT22;14307;51.718;8.938;2024-02-21T05:22:57;7.90;99.90
26691;DHT22;14307;51.718;8.938;2024-02-21T05:25:25;7.90;99.90
26691;DHT22;14307;51.718;8.938;2024-02-21T05:27:53;7.90;99.90
26691;DHT22;14307;51.718;8.938;2024-02-21T05:30:20;7.90;99.90
26691;DHT22;14307;51.718;8.938;2024-02-21T05:32:47;7.90;99.90
26691;DHT22;14307;51.718;8.938;2024-02-21T05:35:14;7.90;99.90
26691;DHT22;14307;51.718;8.938;2024-02-21T05:37:41;7.90;99.90
26691;DHT22;14307;51.718;8.938;2024-02-21T05:40:13;7.90;99.90
26691;DHT22;14307;51.718;8.938;2024-02-21T05:42:40;7.90;99.90
26691;DHT22;14307;51.718;8.938;2024-02-21T05:45:07;7.90;99.90
26691;DHT22;14307;51.718;8.938;2024-02-21T05:47:34;7.90;99.90
26691;DHT22;14307;51.718;8.938;2024-02-21T05:50:01;7.80;99.90
26691;DHT22;14307;51.718;8.938;2024-02-21T05:52:28;7.80;99.90
26691;DHT22;14307;51.718;8.938;2024-02-21T05:54:54;7.80;99.90
26691;DHT22;14307;51.718;8.938;2024-02-21T05:57:21;7.80;99.90
26691;DHT22;14307;51.718;8.938;2024-02-21T05:59:48;7.80;99.90
26691;DHT22;14307;51.718;8.938;2024-02-21T06:02:15;7.80;99.90
26691;DHT22;14307;51.718;8.938;2024-02-21T06:04:42;7.90;99.90
26691;DHT22;14307;51.718;8.938;2024-02-21T06:07:10;7.80;99.90
26691;DHT22;14307;51.718;8.938;2024-02-21T06:09:37;7.90;99.90
26691;DHT22;14307;51.718;8.938;2024-02-21T06:12:04;7.80;99.90
26691;DHT22;14307;51.718;8.938;2024-02-21T06:14:30;7.80;99.90
26691;DHT22;14307;51.718;8.938;2024-02-21T06:16:57;7.80;99.90
26691;DHT22;14307;51.718;8.938;2024-02-21T06:19:24;7.80;99.90
26691;DHT22;14307;51.718;8.938;2024-02-21T06:21:51;7.90;99.90
26691;DHT22;14307;51.718;8.938;2024-02-21T06:24:19;7.80;99.90
26691;DHT22;14307;51.718;8.938;2024-02-21T06:26:46;7.80;99.90
26691;DHT22;14307;51.718;8.938;2024-02-21T06:29:12;7.80;99.90
26691;DHT22;14307;51.718;8.938;2024-02-21T06:31:40;7.80;99.90
26691;DHT22;14307;51.718;8.938;2024-02-21T06:34:10;7.90;99.90
26691;DHT22;14307;51.718;8.938;2024-02-21T06:36:36;7.90;99.90
26691;DHT22;14307;51.718;8.938;2024-02-21T06:39:03;7.90;99.90
26691;DHT22;14307;51.718;8.938;2024-02-21T06:41:34;7.90;99.90
26691;DHT22;14307;51.718;8.938;2024-02-21T06:44:02;7.90;99.90
26691;DHT22;14307;51.718;8.938;2024-02-21T06:46:30;7.90;99.90
26691;DHT22;14307;51.718;8.938;2024-02-21T06:48:57;7.90;99.90
26691;DHT22;14307;51.718;8.938;2024-02-21T06:51:24;7.90;99.90
26691;DHT22;14307;51.718;8.938;2024-02-21T06:53:52;8.00;99.90
26691;DHT22;14307;51.718;8.938;2024-02-21T06:56:19;7.90;99.90
26691;DHT22;14307;51.718;8.938;2024-02-21T06:58:46;8.00;99.90
26691;DHT22;14307;51.718;8.938;2024-02-21T07:01:16;7.90;99.90
26691;DHT22;14307;51.718;8.938;2024-02-21T07:03:43;8.00;99.90
26691;DHT22;14307;51.718;8.938;2024-02-21T07:06:10;8.00;99.90
26691;DHT22;14307;51.718;8.938;2024-02-21T07:08:36;8.00;99.90
26691;DHT22;14307;51.718;8.938;2024-02-21T07:11:04;8.10;99.90
26691;DHT22;14307;51.718;8.938;2024-02-21T07:13:32;8.00;99.90
26691;DHT22;14307;51.718;8.938;2024-02-21T07:15:59;8.00;99.90
26691;DHT22;14307;51.718;8.938;2024-02-21T07:18:27;8.00;99.90
26691;DHT22;14307;51.718;8.938;2024-02-21T07:20:53;8.10;99.90
26691;DHT22;14307;51.718;8.938;2024-02-21T07:23:20;8.00;99.90
26691;DHT22;14307;51.718;8.938;2024-02-21T07:25:47;8.10;99.90
26691;DHT22;14307;51.718;8.938;2024-02-21T07:28:14;8.10;99.90
26691;DHT22;14307;51.718;8.938;2024-02-21T07:30:43;8.20;99.90
26691;DHT22;14307;51.718;8.938;2024-02-21T07:33:10;8.10;99.90
26691;DHT22;14307;51.718;8.938;2024-02-21T07:35:37;8.10;99.90
26691;DHT22;14307;51.718;8.938;2024-02-21T07:38:04;8.10;99.90
26691;DHT22;14307;51.718;8.938;2024-02-21T07:40:32;8.20;99.90
26691;DHT22;14307;51.718;8.938;2024-02-21T07:42:59;8.20;99.90
26691;DHT22;14307;51.718;8.938;2024-02-21T07:45:26;8.20;99.90
26691;DHT22;14307;51.718;8.938;2024-02-21T07:47:53;8.20;99.90
26691;DHT22;14307;51.718;8.938;2024-02-21T07:50:20;8.20;99.90
26691;DHT22;14307;51.718;8.938;2024-02-21T07:52:47;8.30;99.90
26691;DHT22;14307;51.718;8.938;2024-02-21T07:55:14;8.30;99.90
26691;DHT22;14307;51.718;8.938;2024-02-21T07:57:41;8.30;99.90
26691;DHT22;14307;51.718;8.938;2024-02-21T08:00:08;8.30;99.90
26691;DHT22;14307;51.718;8.938;2024-02-21T08:02:44;8.30;99.90
26691;DHT22;14307;51.718;8.938;2024-02-21T08:05:10;8.30;99.90
26691;DHT22;14307;51.718;8.938;2024-02-21T08:07:39;8.40;99.90
26691;DHT22;14307;51.718;8.938;2024-02-21T08:10:06;8.40;99.90
26691;DHT22;14307;51.718;8.938;2024-02-21T08:12:35;8.50;99.90
26691;DHT22;14307;51.718;8.938;2024-02-21T08:15:02;8.50;99.90
26691;DHT22;14307;51.718;8.938;2024-02-21T08:17:35;8.60;99.90
26691;DHT22;14307;51.718;8.938;2024-02-21T08:20:02;8.60;99.90
26691;DHT22;14307;51.718;8.938;2024-02-21T08:22:29;8.60;99.90
26691;DHT22;14307;51.718;8.938;2024-02-21T08:24:56;8.60;99.90
26691;DHT22;14307;51.718;8.938;2024-02-21T08:27:23;8.60;99.90
26691;DHT22;14307;51.718;8.938;2024-02-21T08:29:50;8.60;99.90
26691;DHT22;14307;51.718;8.938;2024-02-21T08:32:17;8.60;99.90
26691;DHT22;14307;51.718;8.938;2024-02-21T08:34:46;8.60;99.90
26691;DHT22;14307;51.718;8.938;2024-02-21T08:37:12;8.60;99.90
26691;DHT22;14307;51.718;8.938;2024-02-21T08:39:39;8.60;99.90
26691;DHT22;14307;51.718;8.938;2024-02-21T08:42:06;8.60;99.90
26691;DHT22;14307;51.718;8.938;2024-02-21T08:44:33;8.60;99.90
26691;DHT22;14307;51.718;8.938;2024-02-21T08:47:00;8.70;99.90
26691;DHT22;14307;51.718;8.938;2024-02-21T08:49:31;8.70;99.90
26691;DHT22;14307;51.718;8.938;2024-02-21T08:52:01;8.80;99.90
26691;DHT22;14307;51.718;8.938;2024-02-21T08:54:29;8.80;99.90
26691;DHT22;14307;51.718;8.938;2024-02-21T08:56:56;8.90;99.90
26691;DHT22;14307;51.718;8.938;2024-02-21T08:59:23;8.90;99.90
26691;DHT22;14307;51.718;8.938;2024-02-21T09:01:51;8.90;99.90
26691;DHT22;14307;51.718;8.938;2024-02-21T09:04:19;8.90;99.90
26691;DHT22;14307;51.718;8.938;2024-02-21T09:06:49;8.80;99.90
26691;DHT22;14307;51.718;8.938;2024-02-21T09:09:16;8.90;99.90
26691;DHT22;14307;51.718;8.938;2024-02-21T09:11:43;8.90;99.90
26691;DHT22;14307;51.718;8.938;2024-02-21T09:14:10;9.00;99.90
26691;DHT22;14307;51.718;8.938;2024-02-21T09:16:37;8.90;99.90
26691;DHT22;14307;51.718;8.938;2024-02-21T09:19:04;8.90;99.90
26691;DHT22;14307;51.718;8.938;2024-02-21T09:21:31;8.90;99.90
26691;DHT22;14307;51.718;8.938;2024-02-21T09:23:57;8.90;99.90
26691;DHT22;14307;51.718;8.938;2024-02-21T09:26:26;8.80;99.90
26691;DHT22;14307;51.718;8.938;2024-02-21T09:28:53;8.90;99.90
26691;DHT22;14307;51.718;8.938;2024-02-21T09:31:20;8.90;99.90
26691;DHT22;14307;51.718;8.938;2024-02-21T09:33:47;8.90;99.90
26691;DHT22;14307;51.718;8.938;2024-02-21T09:36:14;8.90;99.90
26691;DHT22;14307;51.718;8.938;2024-02-21T09:38:41;8.90;99.90
26691;DHT22;14307;51.718;8.938;2024-02-21T09:43:37;8.90;99.90
26691;DHT22;14307;51.718;8.938;2024-02-21T09:46:07;9.00;99.90
26691;DHT22;14307;51.718;8.938;2024-02-21T09:49:04;9.00;99.90
26691;DHT22;14307;51.718;8.938;2024-02-21T09:51:34;9.00;99.90
26691;DHT22;14307;51.718;8.938;2024-02-21T09:54:03;9.00;99.90
26691;DHT22;14307;51.718;8.938;2024-02-21T09:56:44;9.00;99.90
26691;DHT22;14307;51.718;8.938;2024-02-21T09:59:11;9.10;99.90
26691;DHT22;14307;51.718;8.938;2024-02-21T10:01:38;9.10;99.90
26691;DHT22;14307;51.718;8.938;2024-02-21T10:04:05;9.10;99.90
26691;DHT22;14307;51.718;8.938;2024-02-21T10:06:33;9.20;99.90
26691;DHT22;14307;51.718;8.938;2024-02-21T10:09:01;9.40;99.90
26691;DHT22;14307;51.718;8.938;2024-02-21T10:11:28;9.50;99.90
26691;DHT22;14307;51.718;8.938;2024-02-21T10:14:07;9.50;99.90
26691;DHT22;14307;51.718;8.938;2024-02-21T10:16:35;9.50;99.90
26691;DHT22;14307;51.718;8.938;2024-02-21T10:19:02;9.40;99.90
26691;DHT22;14307;51.718;8.938;2024-02-21T10:21:30;9.40;99.90
26691;DHT22;14307;51.718;8.938;2024-02-21T10:23:57;9.50;99.90
26691;DHT22;14307;51.718;8.938;2024-02-21T10:26:24;9.50;99.90
26691;DHT22;14307;51.718;8.938;2024-02-21T10:28:50;9.70;99.90
26691;DHT22;14307;51.718;8.938;2024-02-21T10:31:22;9.70;99.90
26691;DHT22;14307;51.718;8.938;2024-02-21T10:33:55;9.60;99.90
26691;DHT22;14307;51.718;8.938;2024-02-21T10:36:23;9.70;99.90
26691;DHT22;14307;51.718;8.938;2024-02-21T10:38:53;9.70;99.90
26691;DHT22;14307;51.718;8.938;2024-02-21T10:41:23;9.80;99.90
26691;DHT22;14307;51.718;8.938;2024-02-21T10:43:52;9.80;99.90
26691;DHT22;14307;51.718;8.938;2024-02-21T10:46:23;10.00;99.90
26691;DHT22;14307;51.718;8.938;2024-02-21T10:49:07;10.00;99.90
26691;DHT22;14307;51.718;8.938;2024-02-21T10:51:38;10.00;99.90
26691;DHT22;14307;51.718;8.938;2024-02-21T10:54:34;9.90;99.90
26691;DHT22;14307;51.718;8.938;2024-02-21T10:57:04;10.00;99.90
26691;DHT22;14307;51.718;8.938;2024-02-21T10:59:32;10.10;99.90
26691;DHT22;14307;51.718;8.938;2024-02-21T11:01:59;10.20;99.90
26691;DHT22;14307;51.718;8.938;2024-02-21T11:04:28;10.20;99.90
26691;DHT22;14307;51.718;8.938;2024-02-21T11:06:55;10.20;99.90
26691;DHT22;14307;51.718;8.938;2024-02-21T11:09:30;10.10;99.90
26691;DHT22;14307;51.718;8.938;2024-02-21T11:12:03;10.20;99.90
26691;DHT22;14307;51.718;8.938;2024-02-21T11:14:31;10.20;99.90
26691;DHT22;14307;51.718;8.938;2024-02-21T11:17:18;10.30;99.90
26691;DHT22;14307;51.718;8.938;2024-02-21T11:19:45;10.40;99.90
26691;DHT22;14307;51.718;8.938;2024-02-21T11:22:19;10.60;99.90
26691;DHT22;14307;51.718;8.938;2024-02-21T11:24:49;10.60;99.90
26691;DHT22;14307;51.718;8.938;2024-02-21T11:27:20;10.50;99.90
26691;DHT22;14307;51.718;8.938;2024-02-21T11:29:56;10.50;99.90
26691;DHT22;14307;51.718;8.938;2024-02-21T11:32:25;10.50;99.90
26691;DHT22;14307;51.718;8.938;2024-02-21T11:34:58;10.40;99.90
26691;DHT22;14307;51.718;8.938;2024-02-21T11:37:35;10.20;99.90
26691;DHT22;14307;51.718;8.938;2024-02-21T11:40:06;10.20;99.90
26691;DHT22;14307;51.718;8.938;2024-02-21T11:42:38;10.30;99.90
26691;DHT22;14307;51.718;8.938;2024-02-21T11:45:06;10.30;99.90
26691;DHT22;14307;51.718;8.938;2024-02-21T11:47:33;10.30;99.90
26691;DHT22;14307;51.718;8.938;2024-02-21T11:50:00;10.40;99.90
26691;DHT22;14307;51.718;8.938;2024-02-21T11:52:28;10.40;99.90
26691;DHT22;14307;51.718;8.938;2024-02-21T11:54:55;10.40;99.90
26691;DHT22;14307;51.718;8.938;2024-02-21T11:57:31;10.30;99.90
26691;DHT22;14307;51.718;8.938;2024-02-21T11:59:58;10.20;99.90
26691;DHT22;14307;51.718;8.938;2024-02-21T12:02:30;10.30;99.90
26691;DHT22;14307;51.718;8.938;2024-02-21T12:04:57;10.20;99.90
26691;DHT22;14307;51.718;8.938;2024-02-21T12:07:24;10.20;99.90
26691;DHT22;14307;51.718;8.938;2024-02-21T12:09:52;10.30;99.90
26691;DHT22;14307;51.718;8.938;2024-02-21T12:12:21;10.40;99.90
26691;DHT22;14307;51.718;8.938;2024-02-21T12:14:55;10.30;99.90
26691;DHT22;14307;51.718;8.938;2024-02-21T12:17:23;10.30;99.90
26691;DHT22;14307;51.718;8.938;2024-02-21T12:19:50;10.30;99.90
26691;DHT22;14307;51.718;8.938;2024-02-21T12:22:20;10.30;99.90
26691;DHT22;14307;51.718;8.938;2024-02-21T12:24:47;10.20;99.90
26691;DHT22;14307;51.718;8.938;2024-02-21T12:27:15;10.20;99.90
26691;DHT22;14307;51.718;8.938;2024-02-21T12:29:42;10.20;99.90
26691;DHT22;14307;51.718;8.938;2024-02-21T12:32:09;10.30;99.90
26691;DHT22;14307;51.718;8.938;2024-02-21T12:34:36;10.30;99.90
26691;DHT22;14307;51.718;8.938;2024-02-21T12:37:19;10.30;99.90
26691;DHT22;14307;51.718;8.938;2024-02-21T12:39:47;10.40;99.90
26691;DHT22;14307;51.718;8.938;2024-02-21T12:42:15;10.40;99.90
26691;DHT22;14307;51.718;8.938;2024-02-21T12:44:42;10.50;99.90
26691;DHT22;14307;51.718;8.938;2024-02-21T12:47:09;10.60;99.90
26691;DHT22;14307;51.718;8.938;2024-02-21T12:49:36;10.70;99.90
26691;DHT22;14307;51.718;8.938;2024-02-21T12:52:07;10.60;99.90
26691;DHT22;14307;51.718;8.938;2024-02-21T12:54:35;10.60;99.90
26691;DHT22;14307;51.718;8.938;2024-02-21T12:57:01;10.60;99.90
26691;DHT22;14307;51.718;8.938;2024-02-21T12:59:30;10.70;99.90
26691;DHT22;14307;51.718;8.938;2024-02-21T13:01:57;10.70;99.90
26691;DHT22;14307;51.718;8.938;2024-02-21T13:04:24;10.80;99.90
26691;DHT22;14307;51.718;8.938;2024-02-21T13:06:54;10.80;99.90
26691;DHT22;14307;51.718;8.938;2024-02-21T13:09:22;10.90;99.90
26691;DHT22;14307;51.718;8.938;2024-02-21T13:11:49;11.00;99.90
26691;DHT22;14307;51.718;8.938;2024-02-21T13:14:18;11.10;99.90
26691;DHT22;14307;51.718;8.938;2024-02-21T13:16:45;10.90;99.90
26691;DHT22;14307;51.718;8.938;2024-02-21T13:19:12;10.90;99.90
26691;DHT22;14307;51.718;8.938;2024-02-21T13:21:41;11.00;99.90
26691;DHT22;14307;51.718;8.938;2024-02-21T13:24:09;10.90;99.90
26691;DHT22;14307;51.718;8.938;2024-02-21T13:26:35;10.80;99.90
26691;DHT22;14307;51.718;8.938;2024-02-21T13:29:02;10.80;99.90
26691;DHT22;14307;51.718;8.938;2024-02-21T13:31:29;10.80;99.90
26691;DHT22;14307;51.718;8.938;2024-02-21T13:33:56;10.80;99.90
26691;DHT22;14307;51.718;8.938;2024-02-21T13:36:23;10.80;99.90
26691;DHT22;14307;51.718;8.938;2024-02-21T13:38:50;10.80;99.90
26691;DHT22;14307;51.718;8.938;2024-02-21T13:41:18;10.80;99.90
26691;DHT22;14307;51.718;8.938;2024-02-21T13:43:44;10.80;99.90
26691;DHT22;14307;51.718;8.938;2024-02-21T13:46:14;10.80;99.90
26691;DHT22;14307;51.718;8.938;2024-02-21T13:48:40;10.70;99.90
26691;DHT22;14307;51.718;8.938;2024-02-21T13:51:07;10.70;99.90
26691;DHT22;14307;51.718;8.938;2024-02-21T13:53:34;10.60;99.90
26691;DHT22;14307;51.718;8.938;2024-02-21T13:56:02;10.40;99.90
26691;DHT22;14307;51.718;8.938;2024-02-21T13:58:29;10.30;99.90
26691;DHT22;14307;51.718;8.938;2024-02-21T14:00:55;10.30;99.90
26691;DHT22;14307;51.718;8.938;2024-02-21T14:03:23;10.40;99.90
26691;DHT22;14307;51.718;8.938;2024-02-21T14:05:52;10.40;99.90
26691;DHT22;14307;51.718;8.938;2024-02-21T14:08:19;10.20;99.90
26691;DHT22;14307;51.718;8.938;2024-02-21T14:10:46;10.10;99.90
26691;DHT22;14307;51.718;8.938;2024-02-21T14:13:13;10.00;99.90
26691;DHT22;14307;51.718;8.938;2024-02-21T14:15:43;10.00;99.90
26691;DHT22;14307;51.718;8.938;2024-02-21T14:18:12;10.00;99.90
26691;DHT22;14307;51.718;8.938;2024-02-21T14:20:39;10.00;99.90
26691;DHT22;14307;51.718;8.938;2024-02-21T14:23:06;10.00;99.90
26691;DHT22;14307;51.718;8.938;2024-02-21T14:25:33;10.00;99.90
26691;DHT22;14307;51.718;8.938;2024-02-21T14:28:01;9.80;99.90
26691;DHT22;14307;51.718;8.938;2024-02-21T14:30:28;9.80;99.90
26691;DHT22;14307;51.718;8.938;2024-02-21T14:32:54;9.80;99.90
26691;DHT22;14307;51.718;8.938;2024-02-21T14:35:22;9.80;99.90
26691;DHT22;14307;51.718;8.938;2024-02-21T14:37:48;9.80;99.90
26691;DHT22;14307;51.718;8.938;2024-02-21T14:40:16;9.80;99.90
26691;DHT22;14307;51.718;8.938;2024-02-21T14:42:42;9.80;99.90
26691;DHT22;14307;51.718;8.938;2024-02-21T14:45:09;9.70;99.90
26691;DHT22;14307;51.718;8.938;2024-02-21T14:47:36;9.60;99.90
26691;DHT22;14307;51.718;8.938;2024-02-21T14:50:03;9.60;99.90
26691;DHT22;14307;51.718;8.938;2024-02-21T14:52:32;9.60;99.90
26691;DHT22;14307;51.718;8.938;2024-02-21T14:54:59;9.60;99.90
26691;DHT22;14307;51.718;8.938;2024-02-21T14:57:29;9.60;99.90
26691;DHT22;14307;51.718;8.938;2024-02-21T14:59:56;9.60;99.90
26691;DHT22;14307;51.718;8.938;2024-02-21T15:02:27;9.60;99.90
26691;DHT22;14307;51.718;8.938;2024-02-21T15:04:55;9.50;99.90
26691;DHT22;14307;51.718;8.938;2024-02-21T15:07:22;9.50;99.90
26691;DHT22;14307;51.718;8.938;2024-02-21T15:09:51;9.50;99.90
26691;DHT22;14307;51.718;8.938;2024-02-21T15:12:18;9.30;99.90
26691;DHT22;14307;51.718;8.938;2024-02-21T15:14:45;9.40;99.90
26691;DHT22;14307;51.718;8.938;2024-02-21T15:17:12;9.30;99.90
26691;DHT22;14307;51.718;8.938;2024-02-21T15:19:39;9.30;99.90
26691;DHT22;14307;51.718;8.938;2024-02-21T15:22:11;9.30;99.90
26691;DHT22;14307;51.718;8.938;2024-02-21T15:24:39;9.40;99.90
26691;DHT22;14307;51.718;8.938;2024-02-21T15:27:06;9.30;99.90
26691;DHT22;14307;51.718;8.938;2024-02-21T15:29:35;9.30;99.90
26691;DHT22;14307;51.718;8.938;2024-02-21T15:32:05;9.20;99.90
26691;DHT22;14307;51.718;8.938;2024-02-21T15:34:32;9.20;99.90
26691;DHT22;14307;51.718;8.938;2024-02-21T15:37:00;9.20;99.90
26691;DHT22;14307;51.718;8.938;2024-02-21T15:39:27;9.30;99.90
26691;DHT22;14307;51.718;8.938;2024-02-21T15:41:54;9.30;99.90
26691;DHT22;14307;51.718;8.938;2024-02-21T15:44:22;9.30;99.90
26691;DHT22;14307;51.718;8.938;2024-02-21T15:46:49;9.30;99.90
26691;DHT22;14307;51.718;8.938;2024-02-21T15:49:17;9.30;99.90